Time;durP1;ratioP1;P1;durP2;ratioP2;P2;SDS_P1;SDS_P2;PMS_P1;PMS_P2;Temp;Humidity;BMP_temperature;BMP_pressure;BME280_temperature;BME280_humidity;BME280_pressure;Samples;Min_cycle;Max_cycle;Signal;HPM_P1;HPM_P2
2021/01/20 00:01:01;;;;;;;25.67;16.33;;;;;;;;;;5077600;28;20186;-46
2021/01/20 00:03:28;;;;;;;24.08;14.98;;;;;;;;;;5076388;28;20206;-46
2021/01/20 00:05:54;;;;;;;22.75;14.35;;;;;;;;;;5075934;28;20181;-46
2021/01/20 00:08:20;;;;;;;24.05;15.48;;;;;;;;;;5083138;28;20186;-47
2021/01/20 00:10:46;;;;;;;20.13;13.88;;;;;;;;;;5095906;28;20272;-47
2021/01/20 00:13:15;;;;;;;24.23;14.77;;;;;;;;;;5096390;28;20184;-47
2021/01/20 00:15:41;;;;;;;22.17;14.43;;;;;;;;;;5096262;28;20189;-46
2021/01/20 00:18:07;;;;;;;20.30;13.80;;;;;;;;;;5094665;28;20189;-46
2021/01/20 00:20:33;;;;;;;19.52;12.80;;;;;;;;;;5096406;28;20614;-46
2021/01/20 00:22:59;;;;;;;19.40;12.13;;;;;;;;;;5083681;28;20189;-46
2021/01/20 00:25:25;;;;;;;21.25;12.75;;;;;;;;;;5075168;28;20502;-47
2021/01/20 00:27:51;;;;;;;20.63;12.63;;;;;;;;;;5076979;28;20201;-46
2021/01/20 00:30:17;;;;;;;18.77;12.13;;;;;;;;;;5075620;28;20186;-46
2021/01/20 00:32:44;;;;;;;19.20;11.60;;;;;;;;;;5083244;28;20196;-46
2021/01/20 00:35:11;;;;;;;16.90;11.52;;;;;;;;;;5083932;28;20206;-47
2021/01/20 00:37:37;;;;;;;17.15;11.98;;;;;;;;;;5082038;28;20198;-47
2021/01/20 00:40:04;;;;;;;17.27;11.10;;;;;;;;;;5095994;28;20174;-46
2021/01/20 00:42:30;;;;;;;14.60;10.77;;;;;;;;;;5095553;28;20611;-46
2021/01/20 00:44:56;;;;;;;17.20;11.20;;;;;;;;;;5084732;28;20194;-46
2021/01/20 00:47:22;;;;;;;16.40;11.32;;;;;;;;;;5075125;28;20182;-46
2021/01/20 00:49:48;;;;;;;15.13;10.50;;;;;;;;;;5079883;28;20212;-47
2021/01/20 00:52:14;;;;;;;16.02;10.15;;;;;;;;;;5082529;28;20273;-46
2021/01/20 00:54:40;;;;;;;16.05;10.27;;;;;;;;;;5081241;28;20202;-46
2021/01/20 00:57:06;;;;;;;16.48;10.73;;;;;;;;;;5084363;28;20179;-46
2021/01/20 00:59:32;;;;;;;15.05;9.30;;;;;;;;;;5079890;28;20517;-46
2021/01/20 01:01:58;;;;;;;14.48;8.82;;;;;;;;;;5093393;28;20277;-46
2021/01/20 01:04:27;;;;;;;14.95;9.93;;;;;;;;;;5083316;28;20596;-46
2021/01/20 01:06:53;;;;;;;12.10;9.18;;;;;;;;;;5075301;28;20179;-46
2021/01/20 01:09:19;;;;;;;13.73;9.68;;;;;;;;;;5081374;28;20182;-46
2021/01/20 01:11:45;;;;;;;13.30;9.13;;;;;;;;;;5075108;28;20190;-46
2021/01/20 01:14:12;;;;;;;14.45;9.25;;;;;;;;;;5083579;28;20702;-46
2021/01/20 01:16:38;;;;;;;12.98;9.30;;;;;;;;;;5096753;28;20187;-46
2021/01/20 01:19:04;;;;;;;13.82;8.85;;;;;;;;;;5077154;28;20193;-46
2021/01/20 01:21:30;;;;;;;11.32;8.75;;;;;;;;;;5089726;28;20181;-46
2021/01/20 01:23:56;;;;;;;11.77;8.32;;;;;;;;;;5087937;28;20261;-46
2021/01/20 01:26:22;;;;;;;14.15;9.27;;;;;;;;;;5074359;28;20197;-46
2021/01/20 01:28:48;;;;;;;13.45;8.93;;;;;;;;;;5076791;28;20186;-47
2021/01/20 01:31:14;;;;;;;12.25;8.82;;;;;;;;;;5075778;28;20423;-47
2021/01/20 01:33:40;;;;;;;12.25;8.70;;;;;;;;;;5088850;28;20219;-47
2021/01/20 01:36:06;;;;;;;12.50;8.02;;;;;;;;;;5094300;28;20186;-46
2021/01/20 01:38:32;;;;;;;10.98;7.60;;;;;;;;;;5081743;28;20507;-46
2021/01/20 01:40:58;;;;;;;10.52;7.50;;;;;;;;;;5094751;28;20252;-46
2021/01/20 01:43:24;;;;;;;11.35;7.57;;;;;;;;;;5092195;28;20174;-46
2021/01/20 01:45:50;;;;;;;10.07;7.50;;;;;;;;;;5089218;28;20192;-46
2021/01/20 01:48:16;;;;;;;9.68;7.13;;;;;;;;;;5093722;28;20193;-45
2021/01/20 01:50:43;;;;;;;8.70;6.68;;;;;;;;;;5086414;28;20209;-46
2021/01/20 01:53:09;;;;;;;10.50;7.28;;;;;;;;;;5084034;28;20286;-46
2021/01/20 01:55:35;;;;;;;9.20;6.95;;;;;;;;;;5074209;28;20306;-47
2021/01/20 01:58:02;;;;;;;10.48;6.90;;;;;;;;;;5078302;28;20196;-47
2021/01/20 02:00:28;;;;;;;9.23;6.97;;;;;;;;;;5074015;28;20202;-47
2021/01/20 02:02:54;;;;;;;8.93;6.28;;;;;;;;;;5085335;28;20177;-47
2021/01/20 02:05:20;;;;;;;9.95;6.88;;;;;;;;;;5093442;28;20198;-46
2021/01/20 02:07:46;;;;;;;9.07;6.15;;;;;;;;;;5086670;28;20305;-46
2021/01/20 02:10:13;;;;;;;10.10;7.07;;;;;;;;;;5073869;28;20212;-46
2021/01/20 02:12:51;;;;;;;9.85;6.32;;;;;;;;;;5076378;28;20198;-47
2021/01/20 02:15:20;;;;;;;7.90;5.65;;;;;;;;;;5094172;28;20201;-46
2021/01/20 02:17:48;;;;;;;8.43;5.65;;;;;;;;;;5087717;28;20178;-47
2021/01/20 02:20:32;;;;;;;10.35;6.75;;;;;;;;;;5092944;28;20192;-45
2021/01/20 02:23:00;;;;;;;7.47;5.88;;;;;;;;;;5082788;28;20185;-46
2021/01/20 02:25:33;;;;;;;8.40;6.40;;;;;;;;;;5092944;28;20545;-46
2021/01/20 02:28:06;;;;;;;8.23;5.63;;;;;;;;;;5086896;28;20182;-46
2021/01/20 02:30:34;;;;;;;8.93;6.00;;;;;;;;;;5084204;28;20210;-46
2021/01/20 02:33:01;;;;;;;6.97;5.45;;;;;;;;;;5088059;28;20186;-46
2021/01/20 02:35:28;;;;;;;7.18;5.53;;;;;;;;;;5089096;28;20212;-46
2021/01/20 02:37:55;;;;;;;6.95;5.03;;;;;;;;;;5088679;28;20618;-46
2021/01/20 02:40:21;;;;;;;6.63;5.18;;;;;;;;;;5073594;28;20182;-46
2021/01/20 02:42:47;;;;;;;7.68;5.63;;;;;;;;;;5085028;28;20551;-46
2021/01/20 02:45:14;;;;;;;7.65;5.80;;;;;;;;;;5087493;28;20285;-46
2021/01/20 02:47:40;;;;;;;6.88;5.28;;;;;;;;;;5087494;28;20670;-46
2021/01/20 02:50:07;;;;;;;6.03;4.82;;;;;;;;;;5082778;28;20189;-46
2021/01/20 02:52:43;;;;;;;6.97;5.20;;;;;;;;;;5079133;28;20569;-46
2021/01/20 02:55:10;;;;;;;6.70;5.22;;;;;;;;;;5076837;28;20194;-46
2021/01/20 02:57:37;;;;;;;7.05;4.93;;;;;;;;;;5077590;28;20194;-46
2021/01/20 03:00:04;;;;;;;7.47;5.15;;;;;;;;;;5083436;28;20217;-46
2021/01/20 03:02:31;;;;;;;5.43;4.40;;;;;;;;;;5081261;28;20233;-46
2021/01/20 03:05:00;;;;;;;6.65;4.60;;;;;;;;;;5097285;28;20211;-46
2021/01/20 03:07:27;;;;;;;6.03;4.72;;;;;;;;;;5096865;28;20628;-46
2021/01/20 03:09:55;;;;;;;6.15;4.57;;;;;;;;;;5097686;28;20173;-46
2021/01/20 03:12:30;;;;;;;5.30;4.15;;;;;;;;;;5095128;28;20462;-46
2021/01/20 03:14:58;;;;;;;6.63;4.45;;;;;;;;;;5097347;28;20288;-46
2021/01/20 03:17:26;;;;;;;5.55;4.45;;;;;;;;;;5092596;28;20637;-46
2021/01/20 03:19:52;;;;;;;5.55;4.32;;;;;;;;;;5077332;28;20183;-46
2021/01/20 03:22:18;;;;;;;5.82;4.43;;;;;;;;;;5089718;28;20285;-45
2021/01/20 03:24:44;;;;;;;6.47;4.38;;;;;;;;;;5076584;28;20182;-47
2021/01/20 03:27:10;;;;;;;5.38;4.60;;;;;;;;;;5077718;28;20188;-46
2021/01/20 03:29:36;;;;;;;6.25;4.10;;;;;;;;;;5090792;28;20200;-46
2021/01/20 03:32:02;;;;;;;5.25;4.07;;;;;;;;;;5083341;28;20189;-46
2021/01/20 03:34:28;;;;;;;5.75;4.20;;;;;;;;;;5091729;28;20213;-47
2021/01/20 03:36:54;;;;;;;4.55;3.92;;;;;;;;;;5077590;28;20770;-47
2021/01/20 03:39:20;;;;;;;5.43;3.90;;;;;;;;;;5076866;28;20179;-46
2021/01/20 03:41:46;;;;;;;5.20;3.90;;;;;;;;;;5084788;28;20170;-46
2021/01/20 03:44:12;;;;;;;4.95;3.83;;;;;;;;;;5086719;28;20460;-46
2021/01/20 03:46:38;;;;;;;4.80;3.67;;;;;;;;;;5080494;28;20228;-46
2021/01/20 03:49:04;;;;;;;4.68;3.78;;;;;;;;;;5084813;28;20556;-46
2021/01/20 03:51:30;;;;;;;4.88;3.53;;;;;;;;;;5093443;28;21019;-46
2021/01/20 03:53:56;;;;;;;4.97;3.47;;;;;;;;;;5090057;28;20205;-46
2021/01/20 03:56:23;;;;;;;4.32;3.65;;;;;;;;;;5096221;28;20169;-47
2021/01/20 03:58:49;;;;;;;4.03;2.85;;;;;;;;;;5092913;28;20182;-46
2021/01/20 04:01:15;;;;;;;4.20;3.50;;;;;;;;;;5089330;28;20187;-46
2021/01/20 04:03:41;;;;;;;3.90;3.08;;;;;;;;;;5088636;28;20188;-46
2021/01/20 04:06:07;;;;;;;4.63;3.40;;;;;;;;;;5082393;28;20209;-46
2021/01/20 04:08:33;;;;;;;4.80;3.58;;;;;;;;;;5076290;28;20273;-46
2021/01/20 04:10:59;;;;;;;3.78;3.10;;;;;;;;;;5080210;28;20256;-46
2021/01/20 04:13:25;;;;;;;3.95;3.38;;;;;;;;;;5088570;28;20181;-46
2021/01/20 04:15:51;;;;;;;3.78;3.30;;;;;;;;;;5097634;28;20469;-46
2021/01/20 04:18:17;;;;;;;4.38;3.38;;;;;;;;;;5086613;28;20216;-46
2021/01/20 04:20:43;;;;;;;3.90;3.25;;;;;;;;;;5092908;28;20261;-46
2021/01/20 04:23:09;;;;;;;3.63;2.92;;;;;;;;;;5089903;28;20175;-46
2021/01/20 04:25:35;;;;;;;3.33;2.97;;;;;;;;;;5076182;28;20174;-46
2021/01/20 04:28:01;;;;;;;3.08;2.78;;;;;;;;;;5087647;28;20181;-46
2021/01/20 04:30:27;;;;;;;3.47;3.10;;;;;;;;;;5079682;28;20190;-46
2021/01/20 04:32:53;;;;;;;4.25;3.10;;;;;;;;;;5091049;28;20463;-46
2021/01/20 04:35:19;;;;;;;3.45;2.63;;;;;;;;;;5075452;28;20281;-46
2021/01/20 04:37:45;;;;;;;3.25;2.70;;;;;;;;;;5090933;28;20193;-46
2021/01/20 04:40:11;;;;;;;3.00;2.70;;;;;;;;;;5096068;28;20455;-46
2021/01/20 04:42:38;;;;;;;3.47;2.85;;;;;;;;;;5081482;28;20193;-46
2021/01/20 04:45:06;;;;;;;3.38;2.45;;;;;;;;;;5096033;28;20244;-47
2021/01/20 04:47:33;;;;;;;3.20;2.80;;;;;;;;;;5093061;28;20193;-46
2021/01/20 04:49:59;;;;;;;3.40;2.70;;;;;;;;;;5092369;28;20267;-47
2021/01/20 04:52:27;;;;;;;5.15;2.80;;;;;;;;;;5091518;28;20190;-47
2021/01/20 04:54:54;;;;;;;3.92;2.58;;;;;;;;;;5076576;28;20207;-46
2021/01/20 04:57:21;;;;;;;7.40;2.85;;;;;;;;;;5075071;28;20711;-46
2021/01/20 04:59:49;;;;;;;3.20;2.42;;;;;;;;;;5076636;28;20273;-46
2021/01/20 05:02:15;;;;;;;4.15;2.35;;;;;;;;;;5079471;28;20913;-46
2021/01/20 05:04:41;;;;;;;3.20;2.50;;;;;;;;;;5079898;28;20202;-46
2021/01/20 05:07:08;;;;;;;4.95;2.47;;;;;;;;;;5075439;28;20213;-46
2021/01/20 05:09:34;;;;;;;4.82;2.95;;;;;;;;;;5074829;28;20446;-46
2021/01/20 05:12:00;;;;;;;12.02;3.85;;;;;;;;;;5090100;28;20235;-46
2021/01/20 05:14:26;;;;;;;10.18;3.60;;;;;;;;;;5088529;28;20209;-47
2021/01/20 05:16:54;;;;;;;7.68;3.55;;;;;;;;;;5076616;28;20179;-47
2021/01/20 05:19:39;;;;;;;9.63;3.05;;;;;;;;;;5094884;28;20176;-47
2021/01/20 05:22:05;;;;;;;5.03;2.63;;;;;;;;;;5088600;28;20170;-47
2021/01/20 05:24:32;;;;;;;9.05;3.20;;;;;;;;;;5085925;28;20432;-47
2021/01/20 05:26:58;;;;;;;4.30;2.85;;;;;;;;;;5088304;28;20519;-47
2021/01/20 05:29:24;;;;;;;5.68;3.03;;;;;;;;;;5078392;28;20181;-47
2021/01/20 05:31:51;;;;;;;11.05;3.28;;;;;;;;;;5092589;28;20908;-47
2021/01/20 05:34:38;;;;;;;4.82;2.70;;;;;;;;;;5082913;28;20201;-47
2021/01/20 05:37:10;;;;;;;4.95;2.58;;;;;;;;;;5094344;28;20178;-46
2021/01/20 05:39:37;;;;;;;5.40;2.72;;;;;;;;;;5094979;28;20185;-46
2021/01/20 05:42:04;;;;;;;7.65;3.20;;;;;;;;;;5095144;28;20170;-46
2021/01/20 05:44:31;;;;;;;7.20;2.58;;;;;;;;;;5081148;28;20332;-46
2021/01/20 05:46:57;;;;;;;6.05;2.70;;;;;;;;;;5074617;28;20245;-46
2021/01/20 05:49:24;;;;;;;4.05;2.70;;;;;;;;;;5087936;28;20553;-46
2021/01/20 05:51:51;;;;;;;3.88;2.50;;;;;;;;;;5102733;28;20182;-46
2021/01/20 05:54:29;;;;;;;3.95;2.30;;;;;;;;;;5078254;28;20533;-46
2021/01/20 05:56:55;;;;;;;3.95;2.25;;;;;;;;;;5074927;28;20656;-47
2021/01/20 05:59:27;;;;;;;3.80;2.28;;;;;;;;;;5074134;28;20263;-47
2021/01/20 06:01:54;;;;;;;3.30;2.42;;;;;;;;;;5073988;28;20175;-46
2021/01/20 06:04:21;;;;;;;3.88;2.22;;;;;;;;;;5076478;28;20175;-46
2021/01/20 06:06:47;;;;;;;4.13;2.85;;;;;;;;;;5074160;28;20269;-46
2021/01/20 06:09:13;;;;;;;5.32;2.75;;;;;;;;;;5074000;28;20495;-46
2021/01/20 06:11:39;;;;;;;3.38;2.38;;;;;;;;;;5074153;28;20237;-46
2021/01/20 06:14:05;;;;;;;6.13;2.20;;;;;;;;;;5082357;28;20243;-46
2021/01/20 06:16:35;;;;;;;3.67;2.20;;;;;;;;;;5083499;28;20194;-46
2021/01/20 06:19:03;;;;;;;3.17;2.30;;;;;;;;;;5094031;28;20219;-46
2021/01/20 06:21:29;;;;;;;3.55;2.15;;;;;;;;;;5105363;28;20189;-47
2021/01/20 06:23:59;;;;;;;2.53;1.83;;;;;;;;;;5084953;28;20196;-46
2021/01/20 06:26:26;;;;;;;2.95;2.33;;;;;;;;;;5076650;28;20194;-46
2021/01/20 06:28:58;;;;;;;3.28;1.90;;;;;;;;;;5091397;28;20178;-46
2021/01/20 06:31:26;;;;;;;3.88;1.95;;;;;;;;;;5093940;28;20186;-46
2021/01/20 06:33:52;;;;;;;5.05;1.90;;;;;;;;;;5093062;28;20565;-46
2021/01/20 06:36:37;;;;;;;3.30;1.92;;;;;;;;;;5074077;28;20499;-46
2021/01/20 06:39:23;;;;;;;4.40;2.28;;;;;;;;;;5091352;28;20419;-46
2021/01/20 06:41:49;;;;;;;3.15;1.83;;;;;;;;;;5093007;28;20173;-46
2021/01/20 06:44:15;;;;;;;4.93;1.98;;;;;;;;;;5079261;28;20288;-46
2021/01/20 06:46:56;;;;;;;3.83;1.75;;;;;;;;;;5092117;28;20178;-46
2021/01/20 06:49:29;;;;;;;1.90;1.60;;;;;;;;;;5078159;28;20184;-47
2021/01/20 06:52:05;;;;;;;3.50;1.70;;;;;;;;;;5076397;28;20239;-47
2021/01/20 06:54:47;;;;;;;3.00;1.63;;;;;;;;;;5092094;28;20197;-47
2021/01/20 06:57:31;;;;;;;2.33;1.63;;;;;;;;;;5082170;28;20182;-46
2021/01/20 07:00:09;;;;;;;2.47;1.55;;;;;;;;;;5073575;28;20197;-46
2021/01/20 07:02:36;;;;;;;2.92;1.80;;;;;;;;;;5074239;28;20178;-46
2021/01/20 07:05:03;;;;;;;1.88;1.40;;;;;;;;;;5074120;28;20197;-46
2021/01/20 07:07:48;;;;;;;3.25;1.60;;;;;;;;;;5083176;28;20240;-47
2021/01/20 07:10:14;;;;;;;2.08;1.63;;;;;;;;;;5087058;28;20197;-46
2021/01/20 07:13:00;;;;;;;2.60;1.60;;;;;;;;;;5091987;28;20196;-46
2021/01/20 07:15:26;;;;;;;1.65;1.50;;;;;;;;;;5092105;28;20233;-46
2021/01/20 07:17:52;;;;;;;1.88;1.50;;;;;;;;;;5080420;28;20574;-46
2021/01/20 07:20:18;;;;;;;2.55;1.63;;;;;;;;;;5095682;28;20568;-46
2021/01/20 07:22:44;;;;;;;1.77;1.52;;;;;;;;;;5111986;28;20184;-46
2021/01/20 07:25:10;;;;;;;1.90;1.40;;;;;;;;;;5102149;28;20192;-46
2021/01/20 07:27:47;;;;;;;1.80;1.48;;;;;;;;;;5067590;28;20269;-46
2021/01/20 07:30:14;;;;;;;2.03;1.42;;;;;;;;;;5078778;28;20186;-46
2021/01/20 07:32:40;;;;;;;1.45;1.23;;;;;;;;;;5088451;28;20744;-46
2021/01/20 07:35:16;;;;;;;1.70;1.38;;;;;;;;;;5071779;28;20301;-46
2021/01/20 07:37:42;;;;;;;2.17;1.65;;;;;;;;;;5084299;28;20598;-46
2021/01/20 07:40:08;;;;;;;1.67;1.25;;;;;;;;;;5081773;28;20170;-46
2021/01/20 07:42:44;;;;;;;2.17;1.30;;;;;;;;;;5075126;28;20179;-46
2021/01/20 07:45:10;;;;;;;1.30;1.20;;;;;;;;;;5077601;28;20186;-46
2021/01/20 07:47:46;;;;;;;1.25;1.15;;;;;;;;;;5096642;28;20174;-47
2021/01/20 07:50:12;;;;;;;1.67;1.20;;;;;;;;;;5103958;28;20200;-47
2021/01/20 07:52:39;;;;;;;1.75;1.30;;;;;;;;;;5084303;28;20186;-46
2021/01/20 07:55:14;;;;;;;2.88;1.45;;;;;;;;;;5081460;28;20221;-46
2021/01/20 07:57:40;;;;;;;2.40;1.65;;;;;;;;;;5086649;28;20277;-46
2021/01/20 08:00:08;;;;;;;1.27;1.17;;;;;;;;;;5076290;28;20262;-46
2021/01/20 08:02:34;;;;;;;1.45;1.13;;;;;;;;;;5075905;28;20175;-46
2021/01/20 08:05:01;;;;;;;1.45;1.17;;;;;;;;;;5075997;28;20186;-46
2021/01/20 08:07:27;;;;;;;1.23;1.10;;;;;;;;;;5083663;28;20697;-46
2021/01/20 08:09:53;;;;;;;1.35;1.17;;;;;;;;;;5096862;28;20451;-46
2021/01/20 08:12:30;;;;;;;2.47;1.05;;;;;;;;;;5083716;28;20224;-46
2021/01/20 08:14:57;;;;;;;1.30;1.20;;;;;;;;;;5081766;28;20205;-46
2021/01/20 08:17:23;;;;;;;1.45;1.27;;;;;;;;;;5076546;28;20178;-46
2021/01/20 08:19:49;;;;;;;3.13;1.13;;;;;;;;;;5083747;28;20182;-46
2021/01/20 08:22:15;;;;;;;3.53;1.20;;;;;;;;;;5093891;28;20280;-46
2021/01/20 08:24:45;;;;;;;1.45;1.30;;;;;;;;;;5087034;28;20519;-47
2021/01/20 08:27:12;;;;;;;1.35;1.20;;;;;;;;;;5075453;28;20179;-46
2021/01/20 08:29:48;;;;;;;1.40;1.15;;;;;;;;;;5088747;28;20682;-46
2021/01/20 08:32:14;;;;;;;2.08;1.25;;;;;;;;;;5095703;28;20579;-46
2021/01/20 08:34:44;;;;;;;1.27;1.17;;;;;;;;;;5095752;28;20209;-46
2021/01/20 08:37:17;;;;;;;1.40;1.20;;;;;;;;;;5095868;28;20185;-46
2021/01/20 08:39:56;;;;;;;1.25;1.02;;;;;;;;;;5096119;28;20166;-46
2021/01/20 08:42:28;;;;;;;1.25;1.15;;;;;;;;;;5077228;28;20182;-46
2021/01/20 08:45:12;;;;;;;1.15;1.02;;;;;;;;;;5075242;28;20462;-46
2021/01/20 08:47:45;;;;;;;1.23;1.13;;;;;;;;;;5075755;28;20221;-46
2021/01/20 08:50:12;;;;;;;1.30;1.20;;;;;;;;;;5096590;28;20203;-46
2021/01/20 08:52:42;;;;;;;2.60;1.40;;;;;;;;;;5102561;28;20182;-46
2021/01/20 08:55:09;;;;;;;2.42;1.05;;;;;;;;;;5095093;28;20194;-46
2021/01/20 08:57:35;;;;;;;1.25;1.13;;;;;;;;;;5095121;28;20216;-47
2021/01/20 09:00:01;;;;;;;1.10;0.90;;;;;;;;;;5095754;28;20206;-46
2021/01/20 09:02:27;;;;;;;2.25;1.20;;;;;;;;;;5095117;28;20250;-46
2021/01/20 09:04:53;;;;;;;1.52;1.00;;;;;;;;;;5094895;28;20260;-46
2021/01/20 09:07:19;;;;;;;1.85;1.20;;;;;;;;;;5094595;28;20178;-46
2021/01/20 09:09:45;;;;;;;1.70;1.00;;;;;;;;;;5095311;28;20442;-46
2021/01/20 09:12:11;;;;;;;1.70;1.23;;;;;;;;;;5095237;28;20580;-45
2021/01/20 09:14:41;;;;;;;1.00;0.90;;;;;;;;;;5091804;28;20472;-46
2021/01/20 09:17:07;;;;;;;0.93;0.90;;;;;;;;;;5089659;28;20179;-46
2021/01/20 09:19:33;;;;;;;1.00;1.00;;;;;;;;;;5083436;28;20188;-46
2021/01/20 09:21:59;;;;;;;0.70;0.70;;;;;;;;;;5099036;28;20174;-46
2021/01/20 09:24:25;;;;;;;3.08;1.15;;;;;;;;;;5083330;28;20190;-46
2021/01/20 09:26:51;;;;;;;0.80;0.80;;;;;;;;;;5077247;28;20879;-46
2021/01/20 09:29:17;;;;;;;2.53;1.20;;;;;;;;;;5094686;28;20655;-46
2021/01/20 09:31:43;;;;;;;1.00;0.90;;;;;;;;;;5083197;28;20195;-46
2021/01/20 09:34:09;;;;;;;1.55;1.00;;;;;;;;;;5080008;28;20209;-46
2021/01/20 09:36:36;;;;;;;0.80;0.80;;;;;;;;;;5074198;28;20181;-46
2021/01/20 09:39:03;;;;;;;2.15;0.90;;;;;;;;;;5074565;28;20186;-46
2021/01/20 09:41:29;;;;;;;1.10;1.00;;;;;;;;;;5083082;28;20475;-47
2021/01/20 09:43:55;;;;;;;1.10;1.02;;;;;;;;;;5088291;28;20182;-46
2021/01/20 09:46:21;;;;;;;0.88;0.80;;;;;;;;;;5073624;28;20171;-46
2021/01/20 09:48:47;;;;;;;0.93;0.90;;;;;;;;;;5088090;28;20188;-47
2021/01/20 09:51:14;;;;;;;1.00;0.85;;;;;;;;;;5106278;28;20186;-47
2021/01/20 09:53:40;;;;;;;0.95;0.93;;;;;;;;;;5076292;28;20178;-47
2021/01/20 09:56:06;;;;;;;0.93;0.80;;;;;;;;;;5077756;28;20197;-47
2021/01/20 09:58:38;;;;;;;2.28;0.85;;;;;;;;;;5090194;28;20196;-47
2021/01/20 10:01:04;;;;;;;1.23;1.13;;;;;;;;;;5089337;28;20221;-47
2021/01/20 10:03:31;;;;;;;2.80;1.17;;;;;;;;;;5076701;28;20558;-46
2021/01/20 10:05:57;;;;;;;2.55;1.15;;;;;;;;;;5082158;28;20189;-46
2021/01/20 10:08:23;;;;;;;1.67;1.10;;;;;;;;;;5093966;28;20224;-46
2021/01/20 10:10:49;;;;;;;3.92;1.42;;;;;;;;;;5088128;28;20196;-46
2021/01/20 10:13:15;;;;;;;11.52;1.00;;;;;;;;;;5092659;28;20580;-46
2021/01/20 10:15:41;;;;;;;4.20;1.27;;;;;;;;;;5093644;28;20216;-46
2021/01/20 10:18:07;;;;;;;1.25;1.00;;;;;;;;;;5093658;28;20182;-46
2021/01/20 10:20:33;;;;;;;0.82;0.82;;;;;;;;;;5092516;28;20461;-46
2021/01/20 10:23:00;;;;;;;2.53;0.93;;;;;;;;;;5093205;28;20170;-47
2021/01/20 10:25:32;;;;;;;2.38;1.10;;;;;;;;;;5078684;28;20197;-46
2021/01/20 10:27:59;;;;;;;2.35;1.25;;;;;;;;;;5081032;28;20174;-46
2021/01/20 10:30:26;;;;;;;1.33;0.80;;;;;;;;;;5073232;28;20193;-46
2021/01/20 10:32:52;;;;;;;2.97;1.02;;;;;;;;;;5097530;28;20200;-46
2021/01/20 10:35:19;;;;;;;2.58;0.90;;;;;;;;;;5091153;28;20202;-46
2021/01/20 10:37:46;;;;;;;2.30;0.98;;;;;;;;;;5090346;28;20177;-46
2021/01/20 10:40:12;;;;;;;1.15;0.90;;;;;;;;;;5091832;28;20186;-46
2021/01/20 10:42:38;;;;;;;2.78;0.93;;;;;;;;;;5079006;28;20183;-46
2021/01/20 10:45:04;;;;;;;1.05;0.90;;;;;;;;;;5077035;28;20205;-47
2021/01/20 10:47:30;;;;;;;1.70;1.08;;;;;;;;;;5079978;28;20201;-47
2021/01/20 10:49:56;;;;;;;1.95;1.00;;;;;;;;;;5097503;28;20280;-47
2021/01/20 10:52:22;;;;;;;2.53;0.98;;;;;;;;;;5088814;28;20186;-46
2021/01/20 10:54:48;;;;;;;3.50;1.10;;;;;;;;;;5084032;28;20217;-46
2021/01/20 10:57:14;;;;;;;2.47;1.70;;;;;;;;;;5082325;28;20209;-46
2021/01/20 10:59:43;;;;;;;4.80;2.38;;;;;;;;;;5082567;28;20656;-46
2021/01/20 11:02:12;;;;;;;12.70;11.50;;;;;;;;;;5088442;28;20174;-47
2021/01/20 11:04:38;;;;;;;10.25;9.25;;;;;;;;;;5078042;28;20221;-46
2021/01/20 11:07:04;;;;;;;7.95;7.18;;;;;;;;;;5077665;28;20209;-46
2021/01/20 11:09:30;;;;;;;8.70;7.05;;;;;;;;;;5083586;28;20178;-46
2021/01/20 11:11:57;;;;;;;7.50;6.70;;;;;;;;;;5086600;28;20569;-46
2021/01/20 11:14:24;;;;;;;8.07;6.65;;;;;;;;;;5079397;28;20278;-46
2021/01/20 11:16:53;;;;;;;7.78;6.85;;;;;;;;;;5081017;28;20787;-46
2021/01/20 11:19:20;;;;;;;7.50;6.80;;;;;;;;;;5099404;28;20178;-46
2021/01/20 11:21:46;;;;;;;6.28;5.75;;;;;;;;;;5113572;28;20173;-46
2021/01/20 11:24:17;;;;;;;5.88;5.38;;;;;;;;;;5092979;28;20185;-46
2021/01/20 11:26:43;;;;;;;6.40;5.80;;;;;;;;;;5094300;28;20174;-46
2021/01/20 11:29:09;;;;;;;203.50;84.45;;;;;;;;;;5088012;28;20454;-47
2021/01/20 11:31:35;;;;;;;484.50;190.13;;;;;;;;;;5096601;28;20315;-47
2021/01/20 11:34:01;;;;;;;420.25;154.30;;;;;;;;;;5088376;28;20203;-47
2021/01/20 11:36:27;;;;;;;382.58;135.52;;;;;;;;;;5085132;28;20170;-46
2021/01/20 11:38:53;;;;;;;466.88;188.77;;;;;;;;;;5095710;28;20258;-46
2021/01/20 11:41:19;;;;;;;534.72;252.77;;;;;;;;;;5088452;28;20189;-46
2021/01/20 11:43:47;;;;;;;470.00;211.25;;;;;;;;;;5088728;28;20177;-46
2021/01/20 11:46:13;;;;;;;462.08;186.60;;;;;;;;;;5091901;28;20181;-46
2021/01/20 11:48:39;;;;;;;386.73;160.50;;;;;;;;;;5095799;28;20192;-46
2021/01/20 11:51:05;;;;;;;377.80;147.73;;;;;;;;;;5089582;28;20190;-47
2021/01/20 11:53:31;;;;;;;348.38;136.10;;;;;;;;;;5088899;28;20236;-46
2021/01/20 11:55:57;;;;;;;316.42;128.05;;;;;;;;;;5078325;28;20198;-46
2021/01/20 11:58:23;;;;;;;313.15;125.72;;;;;;;;;;5078467;28;20190;-46
2021/01/20 12:00:49;;;;;;;295.30;117.15;;;;;;;;;;5076306;28;20193;-46
2021/01/20 12:03:15;;;;;;;283.00;114.88;;;;;;;;;;5080897;28;20192;-46
2021/01/20 12:05:41;;;;;;;279.42;109.78;;;;;;;;;;5084256;28;20201;-46
2021/01/20 12:08:07;;;;;;;266.63;103.90;;;;;;;;;;5092417;28;20392;-47
2021/01/20 12:10:33;;;;;;;245.13;99.68;;;;;;;;;;5095468;28;20611;-46
2021/01/20 12:12:59;;;;;;;211.40;90.20;;;;;;;;;;5095892;28;20189;-46
2021/01/20 12:15:26;;;;;;;225.73;93.70;;;;;;;;;;5094444;28;20278;-47
2021/01/20 12:17:52;;;;;;;207.63;88.97;;;;;;;;;;5078208;28;20209;-47
2021/01/20 12:20:19;;;;;;;205.63;85.00;;;;;;;;;;5086637;28;20230;-46
2021/01/20 12:22:45;;;;;;;204.60;83.85;;;;;;;;;;5083029;28;20558;-46
2021/01/20 12:25:11;;;;;;;189.63;84.00;;;;;;;;;;5074927;28;20183;-46
2021/01/20 12:27:39;;;;;;;196.57;82.03;;;;;;;;;;5083564;28;20187;-46
2021/01/20 12:30:06;;;;;;;190.05;79.13;;;;;;;;;;5077243;28;20483;-46
2021/01/20 12:32:32;;;;;;;178.50;75.57;;;;;;;;;;5076160;28;20521;-46
2021/01/20 12:34:58;;;;;;;168.23;72.63;;;;;;;;;;5092901;28;20279;-46
2021/01/20 12:37:24;;;;;;;169.85;71.88;;;;;;;;;;5081589;28;20510;-46
2021/01/20 12:39:50;;;;;;;165.10;66.43;;;;;;;;;;5088919;28;20182;-46
2021/01/20 12:42:16;;;;;;;148.85;61.25;;;;;;;;;;5075701;28;20208;-46
2021/01/20 12:44:43;;;;;;;151.00;59.42;;;;;;;;;;5080669;28;20667;-46
2021/01/20 12:47:09;;;;;;;145.80;58.70;;;;;;;;;;5076436;28;20202;-46
2021/01/20 12:49:35;;;;;;;141.65;56.50;;;;;;;;;;5082534;28;20604;-47
2021/01/20 12:52:00;;;;;;;126.40;54.42;;;;;;;;;;5089468;28;20240;-47
2021/01/20 12:54:27;;;;;;;128.82;54.08;;;;;;;;;;5083674;28;20207;-47
2021/01/20 12:56:53;;;;;;;117.38;49.55;;;;;;;;;;5092611;28;20187;-46
2021/01/20 12:59:19;;;;;;;112.65;50.38;;;;;;;;;;5094986;28;20303;-45
2021/01/20 13:01:45;;;;;;;107.00;47.13;;;;;;;;;;5093738;28;20174;-46
2021/01/20 13:04:11;;;;;;;98.20;45.10;;;;;;;;;;5094961;28;20174;-46
2021/01/20 13:06:37;;;;;;;105.05;44.72;;;;;;;;;;5081914;28;20194;-46
2021/01/20 13:09:03;;;;;;;101.82;45.25;;;;;;;;;;5076170;28;20186;-46
2021/01/20 13:11:29;;;;;;;104.32;42.90;;;;;;;;;;5074966;28;20183;-46
2021/01/20 13:13:55;;;;;;;92.28;41.50;;;;;;;;;;5075382;28;20186;-46
2021/01/20 13:16:21;;;;;;;98.32;41.60;;;;;;;;;;5093039;28;20303;-46
2021/01/20 13:18:47;;;;;;;98.72;40.58;;;;;;;;;;5077569;28;20170;-46
2021/01/20 13:21:15;;;;;;;95.82;40.90;;;;;;;;;;5090495;28;20473;-46
2021/01/20 13:23:41;;;;;;;84.80;36.72;;;;;;;;;;5074620;28;20185;-46
2021/01/20 13:26:07;;;;;;;83.75;37.63;;;;;;;;;;5078681;28;20174;-46
2021/01/20 13:28:33;;;;;;;73.60;34.63;;;;;;;;;;5094384;28;20210;-46
2021/01/20 13:30:59;;;;;;;71.82;33.15;;;;;;;;;;5095271;28;20178;-46
2021/01/20 13:33:25;;;;;;;78.20;34.17;;;;;;;;;;5074931;28;20251;-46
2021/01/20 13:35:51;;;;;;;74.22;32.50;;;;;;;;;;5073895;28;20443;-46
2021/01/20 13:38:17;;;;;;;63.80;30.98;;;;;;;;;;5082946;28;20448;-46
2021/01/20 13:40:43;;;;;;;67.60;31.15;;;;;;;;;;5075605;28;20179;-45
2021/01/20 13:43:09;;;;;;;63.65;29.17;;;;;;;;;;5077649;28;20554;-46
2021/01/20 13:45:35;;;;;;;66.40;29.75;;;;;;;;;;5073499;28;20562;-46
2021/01/20 13:48:01;;;;;;;69.45;29.67;;;;;;;;;;5074556;28;20220;-46
2021/01/20 13:50:27;;;;;;;65.13;28.08;;;;;;;;;;5097362;28;20272;-46
2021/01/20 13:52:53;;;;;;;55.80;27.20;;;;;;;;;;5093000;28;20182;-45
2021/01/20 13:55:19;;;;;;;54.65;25.92;;;;;;;;;;5093454;28;20445;-45
2021/01/20 13:57:45;;;;;;;58.83;26.25;;;;;;;;;;5093576;28;20173;-46
2021/01/20 14:00:12;;;;;;;57.53;26.45;;;;;;;;;;5094059;28;20561;-46
2021/01/20 14:02:38;;;;;;;51.03;24.88;;;;;;;;;;5089279;28;20173;-46
2021/01/20 14:05:04;;;;;;;51.88;24.55;;;;;;;;;;5093070;28;20433;-46
2021/01/20 14:07:30;;;;;;;46.83;23.42;;;;;;;;;;5091673;28;20181;-46
2021/01/20 14:09:56;;;;;;;53.80;23.70;;;;;;;;;;5093060;28;20243;-46
2021/01/20 14:12:22;;;;;;;50.55;23.48;;;;;;;;;;5090883;28;20194;-45
2021/01/20 14:14:48;;;;;;;46.17;22.52;;;;;;;;;;5086709;28;20589;-45
2021/01/20 14:17:15;;;;;;;47.15;22.05;;;;;;;;;;5073356;28;20336;-46
2021/01/20 14:19:41;;;;;;;46.83;21.35;;;;;;;;;;5079713;28;20863;-46
2021/01/20 14:22:07;;;;;;;42.72;21.75;;;;;;;;;;5088373;28;20224;-46
2021/01/20 14:24:33;;;;;;;41.00;20.48;;;;;;;;;;5077735;28;20244;-46
2021/01/20 14:26:59;;;;;;;42.47;19.98;;;;;;;;;;5082476;28;20504;-46
2021/01/20 14:29:26;;;;;;;42.65;19.45;;;;;;;;;;5074678;28;20236;-46
2021/01/20 14:31:52;;;;;;;34.50;18.63;;;;;;;;;;5080157;28;20285;-46
2021/01/20 14:34:21;;;;;;;39.72;18.45;;;;;;;;;;5083515;28;20205;-46